Time,TemperatureF,DewpointF,PressureIn,WindDirection,WindDirectionDegrees,WindSpeedMPH,WindSpeedGustMPH,Humidity,HourlyPrecipIn,Conditions,Clouds,dailyrainin,SoftwareType,DateUTC
2013-07-23 00:08:00,78.5,51.0,29.57,South,169,0.0,2.0,39,0.00,,,0.00,weatherlink.com 1.10,2013-07-23 06:08:00,
2013-07-23 00:23:00,78.3,51.0,29.58,SSW,194,0.0,4.0,39,0.00,,,0.00,weatherlink.com 1.10,2013-07-23 06:23:00,
2013-07-23 00:38:00,77.4,53.0,29.58,South,173,0.0,5.0,43,0.00,,,0.00,weatherlink.com 1.10,2013-07-23 06:38:00,
2013-07-23 00:53:00,76.5,53.0,29.59,South,183,0.0,4.0,44,0.00,,,0.00,weatherlink.com 1.10,2013-07-23 06:53:00,
2013-07-23 01:08:00,76.1,53.0,29.59,ESE,119,2.0,4.0,44,0.00,,,0.00,weatherlink.com 1.10,2013-07-23 07:08:00,
2013-07-23 01:23:00,75.7,52.0,29.59,SE,135,0.0,3.0,44,0.00,,,0.00,weatherlink.com 1.10,2013-07-23 07:23:00,
2013-07-23 01:38:00,75.3,52.0,29.59,SE,126,1.0,2.0,45,0.00,,,0.00,weatherlink.com 1.10,2013-07-23 07:38:00,
2013-07-23 01:53:00,74.8,53.0,29.59,SE,142,0.0,4.0,46,0.00,,,0.00,weatherlink.com 1.10,2013-07-23 07:53:00,
2013-07-23 02:08:00,74.4,52.0,29.59,SSE,158,0.0,4.0,46,0.00,,,0.00,weatherlink.com 1.10,2013-07-23 08:08:00,
2013-07-23 02:23:00,73.9,52.0,29.59,SSE,152,0.0,1.0,47,0.00,,,0.00,weatherlink.com 1.10,2013-07-23 08:23:00,
2013-07-23 02:38:00,73.1,53.0,29.59,SE,134,0.0,0.0,49,0.00,,,0.00,weatherlink.com 1.10,2013-07-23 08:38:00,
2013-07-23 02:53:00,72.4,52.0,29.58,SE,134,0.0,0.0,49,0.00,,,0.00,weatherlink.com 1.10,2013-07-23 08:53:00,
2013-07-23 03:08:00,71.9,53.0,29.58,SE,134,0.0,0.0,51,0.00,,,0.00,weatherlink.com 1.10,2013-07-23 09:08:00,
2013-07-23 03:24:00,71.5,52.0,29.58,SE,134,0.0,1.0,51,0.00,,,0.00,weatherlink.com 1.10,2013-07-23 09:24:00,
2013-07-23 03:39:00,72.1,53.0,29.58,South,175,0.0,1.0,51,0.00,,,0.00,weatherlink.com 1.10,2013-07-23 09:39:00,
2013-07-23 03:54:00,71.8,52.0,29.58,South,176,0.0,1.0,50,0.00,,,0.00,weatherlink.com 1.10,2013-07-23 09:54:00,
2013-07-23 04:09:00,71.4,52.0,29.58,South,173,0.0,0.0,51,0.00,,,0.00,weatherlink.com 1.10,2013-07-23 10:09:00,
2013-07-23 04:24:00,70.3,53.0,29.58,South,173,0.0,0.0,54,0.00,,,0.00,weatherlink.com 1.10,2013-07-23 10:24:00,
2013-07-23 04:39:00,69.3,53.0,29.57,South,173,0.0,0.0,57,0.00,,,0.00,weatherlink.com 1.10,2013-07-23 10:39:00,
2013-07-23 04:54:00,68.5,52.0,29.57,South,173,0.0,0.0,57,0.00,,,0.00,weatherlink.com 1.10,2013-07-23 10:54:00,
2013-07-23 05:09:00,68.8,53.0,29.57,South,173,0.0,1.0,57,0.00,,,0.00,weatherlink.com 1.10,2013-07-23 11:09:00,
2013-07-23 05:24:00,68.8,53.0,29.57,South,173,0.0,0.0,58,0.00,,,0.00,weatherlink.com 1.10,2013-07-23 11:24:00,
2013-07-23 05:39:00,67.9,54.0,29.58,South,173,0.0,0.0,61,0.00,,,0.00,weatherlink.com 1.10,2013-07-23 11:39:00,
2013-07-23 05:54:00,67.1,54.0,29.58,South,173,0.0,0.0,63,0.00,,,0.00,weatherlink.com 1.10,2013-07-23 11:54:00,
2013-07-23 06:09:00,66.8,53.0,29.58,South,173,0.0,0.0,62,0.00,,,0.00,weatherlink.com 1.10,2013-07-23 12:09:00,
2013-07-23 06:24:00,66.5,54.0,29.58,East,96,0.0,0.0,64,0.00,,,0.00,weatherlink.com 1.10,2013-07-23 12:24:00,
2013-07-23 06:39:00,65.9,54.0,29.59,East,96,0.0,0.0,65,0.00,,,0.00,weatherlink.com 1.10,2013-07-23 12:39:00,
2013-07-23 06:54:00,66.0,54.0,29.60,East,98,0.0,0.0,66,0.00,,,0.00,weatherlink.com 1.10,2013-07-23 12:54:00,
2013-07-23 07:09:00,66.2,54.0,29.60,NNE,23,0.0,0.0,65,0.00,,,0.00,weatherlink.com 1.10,2013-07-23 13:09:00,
2013-07-23 07:24:00,66.6,55.0,29.60,NNE,26,0.0,0.0,66,0.00,,,0.00,weatherlink.com 1.10,2013-07-23 13:24:00,
2013-07-23 07:39:00,67.6,55.0,29.61,North,360,0.0,0.0,64,0.00,,,0.00,weatherlink.com 1.10,2013-07-23 13:39:00,
2013-07-23 07:54:00,69.6,54.0,29.61,SE,140,0.0,4.0,57,0.00,,,0.00,weatherlink.com 1.10,2013-07-23 13:54:00,
2013-07-23 08:09:00,71.1,53.0,29.62,South,190,3.0,6.0,54,0.00,,,0.00,weatherlink.com 1.10,2013-07-23 14:09:00,
2013-07-23 08:24:00,72.2,54.0,29.62,SE,144,4.0,6.0,53,0.00,,,0.00,weatherlink.com 1.10,2013-07-23 14:24:00,
2013-07-23 08:39:00,73.3,54.0,29.62,South,181,0.0,6.0,52,0.00,,,0.00,weatherlink.com 1.10,2013-07-23 14:39:00,
2013-07-23 08:54:00,74.4,54.0,29.63,SSW,199,4.0,7.0,50,0.00,,,0.00,weatherlink.com 1.10,2013-07-23 14:54:00,
2013-07-23 09:09:00,75.6,54.0,29.63,SSW,192,5.0,8.0,47,0.00,,,0.00,weatherlink.com 1.10,2013-07-23 15:09:00,
2013-07-23 09:24:00,76.5,54.0,29.62,South,184,2.0,9.0,46,0.00,,,0.00,weatherlink.com 1.10,2013-07-23 15:24:00,
2013-07-23 09:39:00,77.7,55.0,29.62,South,191,0.0,4.0,46,0.00,,,0.00,weatherlink.com 1.10,2013-07-23 15:39:00,
2013-07-23 09:54:00,79.0,55.0,29.62,SSW,203,0.0,3.0,43,0.00,,,0.00,weatherlink.com 1.10,2013-07-23 15:54:00,
2013-07-23 10:09:00,80.0,55.0,29.62,SSW,194,0.0,9.0,42,0.00,,,0.00,weatherlink.com 1.10,2013-07-23 16:09:00,
2013-07-23 10:24:00,81.3,55.0,29.62,SE,142,1.0,4.0,40,0.00,,,0.00,weatherlink.com 1.10,2013-07-23 16:24:00,
2013-07-23 10:39:00,82.0,55.0,29.62,SSW,211,0.0,5.0,39,0.00,,,0.00,weatherlink.com 1.10,2013-07-23 16:39:00,
2013-07-23 10:54:00,82.8,53.0,29.61,SSW,203,0.0,9.0,36,0.00,,,0.00,weatherlink.com 1.10,2013-07-23 16:54:00,
2013-07-23 11:09:00,83.8,55.0,29.61,NNW,327,0.0,3.0,37,0.00,,,0.00,weatherlink.com 1.10,2013-07-23 17:09:00,
2013-07-23 11:25:00,84.6,53.0,29.61,ENE,61,0.0,5.0,34,0.00,,,0.00,weatherlink.com 1.10,2013-07-23 17:25:00,
2013-07-23 11:40:00,86.2,53.0,29.60,North,360,2.0,5.0,32,0.00,,,0.00,weatherlink.com 1.10,2013-07-23 17:40:00,
2013-07-23 11:55:00,86.2,53.0,29.60,South,187,4.0,6.0,32,0.00,,,0.00,weatherlink.com 1.10,2013-07-23 17:55:00,
2013-07-23 12:10:00,87.0,54.0,29.59,West,261,1.0,2.0,32,0.00,,,0.00,weatherlink.com 1.10,2013-07-23 18:10:00,
2013-07-23 12:25:00,89.0,54.0,29.59,SSE,154,0.0,6.0,30,0.00,,,0.00,weatherlink.com 1.10,2013-07-23 18:25:00,
2013-07-23 12:40:00,88.9,54.0,29.58,NNE,24,0.0,2.0,30,0.00,,,0.00,weatherlink.com 1.10,2013-07-23 18:40:00,
2013-07-23 12:55:00,90.5,53.0,29.57,ESE,115,0.0,7.0,28,0.00,,,0.00,weatherlink.com 1.10,2013-07-23 18:55:00,
2013-07-23 13:10:00,90.8,52.0,29.56,South,169,4.0,6.0,27,0.00,,,0.00,weatherlink.com 1.10,2013-07-23 19:10:00,
2013-07-23 13:25:00,91.1,53.0,29.56,ENE,71,0.0,3.0,27,0.00,,,0.00,weatherlink.com 1.10,2013-07-23 19:25:00,
2013-07-23 13:55:00,92.5,51.0,29.55,SSW,201,0.0,7.0,24,0.00,,,0.00,weatherlink.com 1.10,2013-07-23 19:55:00,
2013-07-23 14:10:00,92.6,52.0,29.54,NNW,338,0.0,3.0,25,0.00,,,0.00,weatherlink.com 1.10,2013-07-23 20:10:00,
2013-07-23 14:25:00,92.2,51.0,29.54,WSW,251,1.0,9.0,24,0.00,,,0.00,weatherlink.com 1.10,2013-07-23 20:25:00,
2013-07-23 14:40:00,93.8,53.0,29.53,South,187,6.0,12.0,25,0.00,,,0.00,weatherlink.com 1.10,2013-07-23 20:40:00,
2013-07-23 14:55:00,93.1,52.0,29.52,WSW,254,5.0,10.0,25,0.00,,,0.00,weatherlink.com 1.10,2013-07-23 20:55:00,
2013-07-23 15:10:00,94.6,53.0,29.51,South,174,2.0,11.0,24,0.00,,,0.00,weatherlink.com 1.10,2013-07-23 21:10:00,
2013-07-23 15:25:00,94.3,51.0,29.51,WSW,258,0.0,10.0,23,0.00,,,0.00,weatherlink.com 1.10,2013-07-23 21:25:00,
2013-07-23 15:40:00,94.4,50.0,29.50,South,184,0.0,10.0,22,0.00,,,0.00,weatherlink.com 1.10,2013-07-23 21:40:00,
2013-07-23 16:10:00,96.4,51.0,29.49,South,174,2.0,7.0,21,0.00,,,0.00,weatherlink.com 1.10,2013-07-23 22:10:00,
2013-07-23 16:25:00,96.9,50.0,29.49,SSE,150,3.0,8.0,20,0.00,,,0.00,weatherlink.com 1.10,2013-07-23 22:25:00,
2013-07-23 16:55:00,96.5,48.0,29.48,SSW,205,1.0,5.0,19,0.00,,,0.00,weatherlink.com 1.10,2013-07-23 22:55:00,
2013-07-23 17:10:00,97.1,48.0,29.48,SW,234,0.0,4.0,19,0.00,,,0.00,weatherlink.com 1.10,2013-07-23 23:10:00,
2013-07-23 17:25:00,96.2,49.0,29.47,NNE,20,0.0,9.0,20,0.00,,,0.00,weatherlink.com 1.10,2013-07-23 23:25:00,
2013-07-23 17:40:00,97.0,48.0,29.47,WSW,254,3.0,6.0,19,0.00,,,0.00,weatherlink.com 1.10,2013-07-23 23:40:00,
2013-07-23 18:11:00,93.9,48.0,29.46,NE,39,9.0,13.0,21,0.00,,,0.00,weatherlink.com 1.10,2013-07-24 00:11:00,
2013-07-23 18:26:00,93.5,44.0,29.47,NNE,30,1.0,10.0,18,0.00,,,0.00,weatherlink.com 1.10,2013-07-24 00:26:00,
2013-07-23 18:56:00,91.1,42.0,29.48,NNE,29,8.0,12.0,18,0.00,,,0.00,weatherlink.com 1.10,2013-07-24 00:56:00,
2013-07-23 19:11:00,89.0,43.0,29.49,North,360,8.0,13.0,20,0.00,,,0.00,weatherlink.com 1.10,2013-07-24 01:11:00,
2013-07-23 19:26:00,87.9,43.0,29.49,NNE,23,1.0,9.0,21,0.00,,,0.00,weatherlink.com 1.10,2013-07-24 01:26:00,
2013-07-23 19:41:00,87.5,44.0,29.50,ENE,60,0.0,3.0,22,0.00,,,0.00,weatherlink.com 1.10,2013-07-24 01:41:00,
2013-07-23 19:56:00,87.2,44.0,29.50,NNE,19,0.0,9.0,22,0.00,,,0.00,weatherlink.com 1.10,2013-07-24 01:56:00,
2013-07-23 20:11:00,87.1,44.0,29.51,SSE,148,0.0,1.0,22,0.00,,,0.00,weatherlink.com 1.10,2013-07-24 02:11:00,
2013-07-23 20:26:00,86.4,44.0,29.52,ESE,107,3.0,3.0,23,0.00,,,0.00,weatherlink.com 1.10,2013-07-24 02:26:00,
2013-07-23 20:41:00,86.1,43.0,29.53,East,86,8.0,9.0,22,0.00,,,0.00,weatherlink.com 1.10,2013-07-24 02:41:00,
2013-07-23 20:56:00,85.7,43.0,29.54,East,81,6.0,7.0,22,0.00,,,0.00,weatherlink.com 1.10,2013-07-24 02:56:00,
2013-07-23 21:11:00,85.4,44.0,29.55,ESE,105,0.0,2.0,23,0.00,,,0.00,weatherlink.com 1.10,2013-07-24 03:11:00,
2013-07-23 21:41:00,83.6,47.0,29.57,NNW,327,0.0,3.0,28,0.00,,,0.00,weatherlink.com 1.10,2013-07-24 03:41:00,
2013-07-23 21:56:00,82.9,46.0,29.57,North,5,0.0,0.0,27,0.00,,,0.00,weatherlink.com 1.10,2013-07-24 03:56:00,
2013-07-23 22:11:00,82.5,45.0,29.58,NNE,26,0.0,5.0,27,0.00,,,0.00,weatherlink.com 1.10,2013-07-24 04:11:00,
2013-07-23 22:26:00,82.9,45.0,29.58,NNW,344,0.0,4.0,26,0.00,,,0.00,weatherlink.com 1.10,2013-07-24 04:26:00,
2013-07-23 22:41:00,82.1,45.0,29.59,NNW,344,0.0,0.0,27,0.00,,,0.00,weatherlink.com 1.10,2013-07-24 04:41:00,
2013-07-23 22:56:00,81.2,45.0,29.59,NNW,344,0.0,0.0,28,0.00,,,0.00,weatherlink.com 1.10,2013-07-24 04:56:00,
2013-07-23 23:11:00,80.4,46.0,29.59,ENE,61,0.0,0.0,30,0.00,,,0.00,weatherlink.com 1.10,2013-07-24 05:11:00,
2013-07-23 23:26:00,79.7,47.0,29.60,ENE,70,0.0,0.0,32,0.00,,,0.00,weatherlink.com 1.10,2013-07-24 05:26:00,
2013-07-23 23:41:00,78.7,47.0,29.60,ENE,70,0.0,0.0,33,0.00,,,0.00,weatherlink.com 1.10,2013-07-24 05:41:00,
2013-07-23 23:56:00,78.0,47.0,29.60,East,95,0.0,1.0,34,0.00,,,0.00,weatherlink.com 1.10,2013-07-24 05:56:00,